createdAt,value
2023-01-01T00:00:08.110Z,98720.63
2023-01-01T00:03:15.527Z,98717.56
2023-01-01T00:06:19.343Z,98720.31
2023-01-01T00:09:39.901Z,98705.72
2023-01-01T00:12:43.405Z,98691.91
2023-01-01T00:15:46.780Z,98698.75
2023-01-01T00:18:51.875Z,98695.25
2023-01-01T00:21:55.574Z,98710.13
2023-01-01T00:24:59.045Z,98702.06
2023-01-01T00:28:05.146Z,98699.00
2023-01-01T00:31:09.533Z,98702.91
2023-01-01T00:34:14.907Z,98708.59
2023-01-01T00:37:18.486Z,98700.63
2023-01-01T00:40:22.002Z,98700.31
2023-01-01T00:43:25.919Z,98705.66
2023-01-01T00:46:29.260Z,98698.50
2023-01-01T00:49:34.297Z,98708.72
2023-01-01T00:52:37.743Z,98709.03
2023-01-01T00:55:41.684Z,98711.81
2023-01-01T00:58:45.610Z,98718.63
2023-01-01T01:02:04.599Z,98715.66
2023-01-01T01:05:10.996Z,98713.13
2023-01-01T01:08:14.480Z,98712.91
2023-01-01T01:11:22.208Z,98714.25
2023-01-01T01:14:25.754Z,98727.81
2023-01-01T01:17:29.591Z,98730.59
2023-01-01T01:20:34.492Z,98724.78
2023-01-01T01:23:38.852Z,98702.16
2023-01-01T01:26:43.019Z,98723.44
2023-01-01T01:29:46.573Z,98731.25
2023-01-01T01:32:50.120Z,98711.09
2023-01-01T01:35:55.967Z,98730.09
2023-01-01T01:39:01.999Z,98726.34
2023-01-01T01:42:06.531Z,98733.19
2023-01-01T01:45:13.573Z,98743.91
2023-01-01T01:48:18.159Z,98729.59
2023-01-01T01:51:29.696Z,98726.69
2023-01-01T01:54:33.194Z,98727.97
2023-01-01T01:57:40.232Z,98721.84
2023-01-01T02:00:44.022Z,98732.06
2023-01-01T02:03:58.263Z,98724.25
2023-01-01T02:07:03.126Z,98715.50
2023-01-01T02:10:07.637Z,98730.44
2023-01-01T02:13:11.561Z,98731.88
2023-01-01T02:16:23.665Z,98734.47
2023-01-01T02:19:45.071Z,98741.63
2023-01-01T02:23:25.880Z,98737.47
2023-01-01T02:26:54.282Z,98739.41
2023-01-01T02:30:05.844Z,98738.19
2023-01-01T02:33:15.140Z,98733.31
2023-01-01T02:36:23.136Z,98728.09
2023-01-01T02:39:34.730Z,98733.63
2023-01-01T02:42:38.486Z,98739.44
2023-01-01T02:45:43.658Z,98738.00
2023-01-01T02:48:50.564Z,98725.34
2023-01-01T02:52:07.081Z,98733.50
2023-01-01T02:55:28.097Z,98742.91
2023-01-01T02:59:00.818Z,98743.53
2023-01-01T03:02:21.878Z,98740.75
2023-01-01T03:05:59.831Z,98745.16
2023-01-01T03:09:16.218Z,98756.81
2023-01-01T03:12:40.029Z,98760.59
2023-01-01T03:15:59.841Z,98768.34
2023-01-01T03:19:16.495Z,98765.47
2023-01-01T03:22:26.035Z,98778.56
2023-01-01T03:25:35.276Z,98773.56
2023-01-01T03:28:47.491Z,98781.84
2023-01-01T03:31:57.918Z,98793.69
2023-01-01T03:35:04.227Z,98788.78
2023-01-01T03:38:14.877Z,98782.16
2023-01-01T03:41:31.735Z,98781.03
2023-01-01T03:44:39.597Z,98773.69
2023-01-01T03:47:44.600Z,98783.91
2023-01-01T03:51:06.678Z,98778.78
2023-01-01T03:54:25.230Z,98776.13
2023-01-01T03:57:44.909Z,98781.03
2023-01-01T04:00:57.275Z,98780.84
2023-01-01T04:04:04.461Z,98767.34
2023-01-01T04:07:15.227Z,98770.63
2023-01-01T04:10:19.863Z,98773.38
2023-01-01T04:13:23.662Z,98767.84
2023-01-01T04:16:27.027Z,98763.97
2023-01-01T04:19:30.795Z,98771.13
2023-01-01T04:22:35.840Z,98771.00
2023-01-01T04:25:39.487Z,98772.94
2023-01-01T04:28:44.204Z,98771.81
2023-01-01T04:31:51.060Z,98779.78
2023-01-01T04:34:54.370Z,98773.91
2023-01-01T04:38:02.847Z,98794.59
2023-01-01T04:41:06.963Z,98796.53
2023-01-01T04:44:10.540Z,98799.00
2023-01-01T04:47:13.918Z,98803.38
2023-01-01T04:50:18.176Z,98800.63
2023-01-01T04:53:22.845Z,98810.22
2023-01-01T04:56:26.659Z,98805.53
2023-01-01T04:59:31.111Z,98820.13
2023-01-01T05:02:34.920Z,98815.75
2023-01-01T05:05:38.293Z,98809.41
2023-01-01T05:08:45.727Z,98824.22
2023-01-01T05:11:49.275Z,98816.06
2023-01-01T05:14:53.013Z,98823.22
2023-01-01T05:17:56.283Z,98830.34
2023-01-01T05:21:02.204Z,98837.50
2023-01-01T05:24:09.418Z,98851.81
2023-01-01T05:27:14.986Z,98861.84
2023-01-01T05:30:18.938Z,98855.50
2023-01-01T05:33:22.733Z,98857.97
2023-01-01T05:36:29.789Z,98858.16
2023-01-01T05:39:34.873Z,98860.09
2023-01-01T05:42:38.154Z,98867.38
2023-01-01T05:45:41.705Z,98865.72
2023-01-01T05:48:45.870Z,98869.81
2023-01-01T05:51:50.250Z,98879.53
2023-01-01T05:54:55.060Z,98879.22
2023-01-01T05:57:58.904Z,98876.78
2023-01-01T06:01:09.599Z,98878.59
2023-01-01T06:04:13.365Z,98874.91
2023-01-01T06:07:16.755Z,98871.34
2023-01-01T06:10:21.839Z,98875.44
2023-01-01T06:13:25.163Z,98871.63
2023-01-01T06:16:31.208Z,98876.84
2023-01-01T06:19:34.839Z,98877.50
2023-01-01T06:22:38.779Z,98883.50
2023-01-01T06:25:43.605Z,98877.97
2023-01-01T06:28:49.045Z,98876.38
2023-01-01T06:31:52.472Z,98878.63
2023-01-01T06:34:56.361Z,98875.97
2023-01-01T06:38:01.102Z,98893.38
2023-01-01T06:41:09.108Z,98893.00
2023-01-01T06:44:12.379Z,98900.34
2023-01-01T06:47:16.009Z,98891.56
2023-01-01T06:50:19.604Z,98889.16
2023-01-01T06:53:26.014Z,98901.47
2023-01-01T06:56:31.354Z,98904.25
2023-01-01T06:59:34.948Z,98903.75
2023-01-01T07:02:38.273Z,98922.72
2023-01-01T07:05:42.255Z,98920.78
2023-01-01T07:08:45.634Z,98927.13
2023-01-01T07:11:50.703Z,98932.03
2023-01-01T07:14:53.921Z,98928.44
2023-01-01T07:17:57.612Z,98935.28
2023-01-01T07:21:03.747Z,98942.16
2023-01-01T07:24:11.918Z,98946.22
2023-01-01T07:27:16.457Z,98943.66
2023-01-01T07:30:20.195Z,98938.13
2023-01-01T07:33:25.566Z,98945.50
2023-01-01T07:36:29.154Z,98954.28
2023-01-01T07:39:32.423Z,98957.56
2023-01-01T07:42:37.491Z,98956.59
2023-01-01T07:45:41.546Z,98966.53
2023-01-01T07:48:46.872Z,98970.91
2023-01-01T07:51:50.077Z,98966.22
2023-01-01T07:54:54.052Z,98968.66
2023-01-01T07:57:58.724Z,98973.56
2023-01-01T08:01:02.697Z,98974.69
2023-01-01T08:04:06.732Z,98977.97
2023-01-01T08:07:10.453Z,98975.22
2023-01-01T08:10:13.865Z,98972.97
2023-01-01T08:13:18.899Z,98978.97
2023-01-01T08:16:22.146Z,98978.97
2023-01-01T08:19:25.823Z,98985.31
2023-01-01T08:22:29.232Z,98980.09
2023-01-01T08:25:33.207Z,98985.31
2023-01-01T08:28:37.792Z,98993.00
2023-01-01T08:31:41.517Z,98986.13
2023-01-01T08:34:44.988Z,98986.13
2023-01-01T08:37:48.494Z,98990.53
2023-01-01T08:40:51.723Z,98998.00
2023-01-01T08:43:57.003Z,98993.81
2023-01-01T08:47:00.346Z,98992.75
2023-01-01T08:50:05.615Z,98991.38
2023-01-01T08:53:08.860Z,99000.47
2023-01-01T08:56:16.127Z,98998.72
2023-01-01T08:59:20.730Z,98991.25
2023-01-01T09:02:24.550Z,98995.66
2023-01-01T09:05:28.701Z,98984.31
2023-01-01T09:08:32.441Z,98997.00
2023-01-01T09:11:36.455Z,98991.94
2023-01-01T09:14:41.459Z,98998.81
2023-01-01T09:17:44.672Z,99000.22
2023-01-01T09:20:48.200Z,98991.13
2023-01-01T09:23:51.356Z,98995.53
2023-01-01T09:26:54.840Z,99014.53
2023-01-01T09:29:59.854Z,99006.16
2023-01-01T09:33:05.280Z,98987.66
2023-01-01T09:36:27.221Z,98981.38
2023-01-01T09:39:30.890Z,98987.97
2023-01-01T09:42:44.677Z,98980.06
2023-01-01T09:46:00.436Z,98984.97
2023-01-01T09:49:12.852Z,98978.75
2023-01-01T09:52:21.547Z,98985.09
2023-01-01T09:55:31.568Z,98972.59
2023-01-01T09:58:38.824Z,98977.28
2023-01-01T10:01:55.633Z,98981.59
2023-01-01T10:05:09.940Z,98975.03
2023-01-01T10:08:32.827Z,98974.94
2023-01-01T10:11:54.217Z,98971.56
2023-01-01T10:15:13.315Z,98976.94
2023-01-01T10:18:25.462Z,98968.66
2023-01-01T10:21:34.965Z,98978.06
2023-01-01T10:24:48.564Z,98979.66
2023-01-01T10:28:00.060Z,98985.47
2023-01-01T10:31:17.138Z,98974.00
2023-01-01T10:34:26.573Z,98978.53
2023-01-01T10:37:37.751Z,98976.56
2023-01-01T10:40:41.359Z,98978.31
2023-01-01T10:43:47.478Z,98969.41
2023-01-01T10:46:59.176Z,98969.31
2023-01-01T10:50:08.581Z,98972.69
2023-01-01T10:53:25.623Z,98962.34
2023-01-01T10:56:43.367Z,98962.66
2023-01-01T10:59:53.937Z,98948.28
2023-01-01T11:03:19.307Z,98940.84
2023-01-01T11:06:28.130Z,98945.53
2023-01-01T11:09:32.745Z,98948.59
2023-01-01T11:13:04.409Z,98948.59
2023-01-01T11:16:03.130Z,98955.34
2023-01-01T11:19:09.578Z,98942.06
2023-01-01T11:22:39.427Z,98945.38
2023-01-01T11:26:00.051Z,98948.59
2023-01-01T11:29:22.662Z,98951.66
2023-01-01T11:32:36.179Z,98949.81
2023-01-01T11:35:51.753Z,98940.63
2023-01-01T11:39:21.300Z,98932.69
2023-01-01T11:42:29.156Z,98935.91
2023-01-01T11:45:41.177Z,98941.94
2023-01-01T11:48:45.463Z,98926.19
2023-01-01T11:51:48.868Z,98926.97
2023-01-01T11:54:57.614Z,98920.31
2023-01-01T11:58:19.207Z,98931.38
2023-01-01T12:01:33.219Z,98933.16
2023-01-01T12:04:48.181Z,98929.81
2023-01-01T12:07:53.447Z,98930.00
2023-01-01T12:11:10.211Z,98920.16
2023-01-01T12:14:29.499Z,98911.53
2023-01-01T12:17:42.376Z,98911.84
2023-01-01T12:20:56.150Z,98908.53
2023-01-01T12:23:59.625Z,98901.88
2023-01-01T12:27:29.052Z,98915.53
2023-01-01T12:30:44.127Z,98911.81
2023-01-01T12:34:10.311Z,98915.78
2023-01-01T12:37:28.773Z,98911.84
2023-01-01T12:40:40.991Z,98913.94
2023-01-01T12:44:02.196Z,98910.13
2023-01-01T12:47:17.535Z,98918.75
2023-01-01T12:50:37.257Z,98916.81
2023-01-01T12:53:57.116Z,98920.72
2023-01-01T12:57:09.797Z,98925.47
2023-01-01T13:00:18.948Z,98935.63
2023-01-01T13:03:31.458Z,98939.00
2023-01-01T13:06:44.573Z,98936.22
2023-01-01T13:09:49.006Z,98938.97
2023-01-01T13:12:56.931Z,98952.22
2023-01-01T13:16:01.995Z,98978.53
2023-01-01T13:19:07.007Z,98955.63
2023-01-01T13:22:43.070Z,98965.81
2023-01-01T13:25:46.669Z,98965.47
2023-01-01T13:29:48.277Z,98969.56
2023-01-01T13:33:26.869Z,98978.19
2023-01-01T13:36:33.940Z,98968.22
2023-01-01T13:39:55.012Z,98966.34
2023-01-01T13:43:34.984Z,98972.53
2023-01-01T13:46:59.153Z,98976.56
2023-01-01T13:50:21.704Z,98975.84
2023-01-01T13:53:59.782Z,98989.25
2023-01-01T13:57:25.188Z,98985.91
2023-01-01T14:00:35.829Z,98989.94
2023-01-01T14:03:45.868Z,98989.88
2023-01-01T14:06:56.495Z,98991.75
2023-01-01T14:10:28.975Z,98993.47
2023-01-01T14:13:42.271Z,98993.56
2023-01-01T14:16:45.807Z,99009.03
2023-01-01T14:19:51.470Z,99003.75
2023-01-01T14:22:56.329Z,99008.97
2023-01-01T14:26:03.318Z,99021.91
2023-01-01T14:29:10.629Z,99012.53
2023-01-01T14:32:19.572Z,99013.66
2023-01-01T14:35:22.942Z,99012.00
2023-01-01T14:38:31.241Z,99011.09
2023-01-01T14:41:38.666Z,99018.03
2023-01-01T14:44:47.326Z,99036.16
2023-01-01T14:47:54.550Z,99024.66
2023-01-01T14:50:58.475Z,99031.84
2023-01-01T14:54:06.294Z,99035.34
2023-01-01T14:57:14.921Z,99039.22
2023-01-01T15:00:24.724Z,99043.81
2023-01-01T15:03:28.375Z,99050.53
2023-01-01T15:06:33.827Z,99059.22
2023-01-01T15:09:38.801Z,99059.47
2023-01-01T15:12:43.026Z,99049.28
2023-01-01T15:15:49.806Z,99050.63
2023-01-01T15:18:57.171Z,99054.50
2023-01-01T15:22:00.976Z,99061.91
2023-01-01T15:25:14.020Z,99060.81
2023-01-01T15:28:21.491Z,99052.84
2023-01-01T15:31:35.310Z,99049.84
2023-01-01T15:34:48.968Z,99061.69
2023-01-01T15:37:58.363Z,99065.31
2023-01-01T15:41:38.970Z,99074.56
2023-01-01T15:44:42.641Z,99070.66
2023-01-01T15:47:48.283Z,99068.44
2023-01-01T15:51:07.006Z,99079.88
2023-01-01T15:54:19.847Z,99057.72
2023-01-01T15:57:25.444Z,99061.34
2023-01-01T16:00:33.156Z,99060.00
2023-01-01T16:03:40.038Z,99049.28
2023-01-01T16:06:46.708Z,99061.38
2023-01-01T16:09:57.339Z,99055.34
2023-01-01T16:13:03.061Z,99060.31
2023-01-01T16:16:25.294Z,99069.41
2023-01-01T16:19:32.674Z,99067.50
2023-01-01T16:22:36.860Z,99066.69
2023-01-01T16:25:40.675Z,99069.44
2023-01-01T16:28:45.346Z,99065.88
2023-01-01T16:31:49.105Z,99074.41
2023-01-01T16:34:52.584Z,99083.81
2023-01-01T16:37:56.335Z,99076.94
2023-01-01T16:40:59.629Z,99081.91
2023-01-01T16:44:04.637Z,99092.09
2023-01-01T16:47:08.259Z,99086.34
2023-01-01T16:50:12.923Z,99092.97
2023-01-01T16:53:16.250Z,99100.16
2023-01-01T16:56:20.051Z,99120.53
2023-01-01T16:59:24.969Z,99119.09
2023-01-01T17:02:30.387Z,99130.41
2023-01-01T17:05:42.233Z,99127.88
2023-01-01T17:08:48.093Z,99125.50
2023-01-01T17:11:51.561Z,99124.38
2023-01-01T17:14:56.476Z,99131.53
2023-01-01T17:18:00.303Z,99128.78
2023-01-01T17:21:06.368Z,99129.31
2023-01-01T17:24:09.812Z,99134.81
2023-01-01T17:27:13.502Z,99132.84
2023-01-01T17:30:18.305Z,99130.09
2023-01-01T17:33:21.741Z,99144.16
2023-01-01T17:36:27.099Z,99134.81
2023-01-01T17:39:30.843Z,99136.41
2023-01-01T17:42:35.990Z,99143.56
2023-01-01T17:45:40.966Z,99142.44
2023-01-01T17:48:46.470Z,99151.53
2023-01-01T17:51:50.049Z,99143.56
2023-01-01T17:54:53.364Z,99148.22
2023-01-01T17:57:57.012Z,99153.44
2023-01-01T18:01:27.973Z,99135.72
2023-01-01T18:04:31.738Z,99152.91
2023-01-01T18:07:35.048Z,99153.16
2023-01-01T18:10:38.994Z,99163.59
2023-01-01T18:13:42.471Z,99164.66
2023-01-01T18:16:47.725Z,99156.63
2023-01-01T18:19:51.014Z,99163.22
2023-01-01T18:22:54.896Z,99163.22
2023-01-01T18:26:01.995Z,99168.97
2023-01-01T18:29:05.884Z,99172.31
2023-01-01T18:32:10.906Z,99172.56
2023-01-01T18:35:14.752Z,99173.66
2023-01-01T18:38:20.527Z,99184.09
2023-01-01T18:41:44.833Z,99179.66
2023-01-01T18:44:48.311Z,99177.53
2023-01-01T18:47:53.384Z,99181.63
2023-01-01T18:50:58.288Z,99185.19
2023-01-01T18:54:02.318Z,99182.19
2023-01-01T18:57:22.446Z,99175.31
2023-01-01T19:00:33.157Z,99183.41
2023-01-01T19:03:41.532Z,99191.94
2023-01-01T19:06:45.535Z,99190.09
2023-01-01T19:09:51.553Z,99188.47
2023-01-01T19:12:59.374Z,99181.06
2023-01-01T19:16:22.410Z,99186.56
2023-01-01T19:19:37.496Z,99179.47
2023-01-01T19:22:40.737Z,99187.75
2023-01-01T19:25:44.565Z,99176.75
2023-01-01T19:28:53.136Z,99185.81
2023-01-01T19:31:59.506Z,99177.56
2023-01-01T19:35:04.378Z,99165.75
2023-01-01T19:38:08.137Z,99177.31
2023-01-01T19:41:12.512Z,99192.16
2023-01-01T19:44:24.602Z,99200.41
2023-01-01T19:47:28.335Z,99199.59
2023-01-01T19:50:33.382Z,99188.31
2023-01-01T19:53:36.858Z,99190.22
2023-01-01T19:56:41.483Z,99197.91
2023-01-01T19:59:44.665Z,99202.59
2023-01-01T20:02:48.725Z,99197.63
2023-01-01T20:05:56.085Z,99203.66
2023-01-01T20:08:59.496Z,99217.69
2023-01-01T20:12:02.766Z,99208.34
2023-01-01T20:15:08.939Z,99219.88
2023-01-01T20:18:12.305Z,99206.13
2023-01-01T20:21:49.450Z,99201.69
2023-01-01T20:24:52.648Z,99211.63
2023-01-01T20:28:14.027Z,99219.28
2023-01-01T20:31:17.305Z,99211.63
2023-01-01T20:34:22.445Z,99219.00
2023-01-01T20:37:39.284Z,99217.59
2023-01-01T20:40:42.811Z,99219.00
2023-01-01T20:43:46.017Z,99211.28
2023-01-01T20:46:49.709Z,99214.31
2023-01-01T20:49:52.930Z,99231.63
2023-01-01T20:52:57.867Z,99241.25
2023-01-01T20:56:01.235Z,99223.38
2023-01-01T20:59:24.611Z,99232.72
2023-01-01T21:02:29.789Z,99227.22
2023-01-01T21:05:33.772Z,99228.78
2023-01-01T21:08:38.367Z,99223.25
2023-01-01T21:11:42.212Z,99229.59
2023-01-01T21:14:45.521Z,99232.59
2023-01-01T21:17:49.626Z,99230.94
2023-01-01T21:20:52.894Z,99229.59
2023-01-01T21:24:07.313Z,99226.81
2023-01-01T21:27:15.840Z,99231.97
2023-01-01T21:30:22.216Z,99235.56
2023-01-01T21:33:29.112Z,99236.09
2023-01-01T21:36:32.910Z,99242.97
2023-01-01T21:39:37.556Z,99250.13
2023-01-01T21:42:41.191Z,99237.56
2023-01-01T21:45:48.267Z,99241.94
2023-01-01T21:48:57.681Z,99244.69
2023-01-01T21:52:02.445Z,99240.88
2023-01-01T21:55:23.255Z,99251.56
2023-01-01T21:58:51.436Z,99258.22
2023-01-01T22:02:00.908Z,99239.84
2023-01-01T22:05:30.842Z,99236.47
2023-01-01T22:08:45.691Z,99237.38
2023-01-01T22:11:53.306Z,99242.09
2023-01-01T22:15:08.378Z,99241.25
2023-01-01T22:18:25.253Z,99226.13
2023-01-01T22:21:28.914Z,99224.00
2023-01-01T22:24:36.372Z,99221.81
2023-01-01T22:27:41.940Z,99216.03
2023-01-01T22:30:45.378Z,99221.00
2023-01-01T22:33:50.928Z,99227.59
2023-01-01T22:36:55.046Z,99217.44
2023-01-01T22:40:01.258Z,99213.84
2023-01-01T22:43:12.478Z,99213.25
2023-01-01T22:46:27.310Z,99205.81
2023-01-01T22:49:39.037Z,99206.63
2023-01-01T22:52:43.023Z,99206.41
2023-01-01T22:55:46.276Z,99215.75
2023-01-01T22:58:57.259Z,99218.50
2023-01-01T23:02:00.994Z,99219.06
2023-01-01T23:05:06.895Z,99224.56
2023-01-01T23:08:10.163Z,99216.91
2023-01-01T23:11:14.462Z,99225.97
2023-01-01T23:14:39.179Z,99221.28
2023-01-01T23:17:43.134Z,99221.31
2023-01-01T23:20:46.352Z,99218.56
2023-01-01T23:23:52.417Z,99220.22
2023-01-01T23:26:55.740Z,99225.19
2023-01-01T23:30:03.296Z,99213.88
2023-01-01T23:33:07.196Z,99207.34
2023-01-01T23:36:11.281Z,99212.03
2023-01-01T23:39:14.475Z,99210.38
2023-01-01T23:42:18.337Z,99200.50
2023-01-01T23:45:23.062Z,99208.72
2023-01-01T23:48:26.785Z,99209.28
2023-01-01T23:51:30.079Z,99202.69
2023-01-01T23:54:33.802Z,99192.00
2023-01-01T23:57:37.169Z,99197.75
